sensor_id;sensor_type;location;lat;lon;timestamp;pressure;altitude;pressure_sealevel;temperature;humidity
63694;BME280;49839;51.798;10.954;2023-04-28T00:01:53;99239.31;;;6.40;nan
63694;BME280;49839;51.798;10.954;2023-04-28T00:04:20;99242.63;;;6.45;nan
63694;BME280;49839;51.798;10.954;2023-04-28T00:06:49;99241.59;;;6.49;nan
63694;BME280;49839;51.798;10.954;2023-04-28T00:09:16;99237.09;;;6.53;nan
63694;BME280;49839;51.798;10.954;2023-04-28T00:11:44;99237.97;;;6.53;nan
63694;BME280;49839;51.798;10.954;2023-04-28T00:14:13;99240.44;;;6.56;nan
63694;BME280;49839;51.798;10.954;2023-04-28T00:16:41;99232.50;;;6.59;nan
63694;BME280;49839;51.798;10.954;2023-04-28T00:19:09;99221.03;;;6.62;nan
63694;BME280;49839;51.798;10.954;2023-04-28T00:21:37;99224.41;;;6.65;nan
63694;BME280;49839;51.798;10.954;2023-04-28T00:24:05;99225.09;;;6.70;nan
63694;BME280;49839;51.798;10.954;2023-04-28T00:26:33;99221.56;;;6.71;nan
63694;BME280;49839;51.798;10.954;2023-04-28T00:29:00;99211.03;;;6.73;nan
63694;BME280;49839;51.798;10.954;2023-04-28T00:31:29;99204.03;;;6.73;nan
63694;BME280;49839;51.798;10.954;2023-04-28T00:33:57;99204.94;;;6.72;nan
63694;BME280;49839;51.798;10.954;2023-04-28T00:36:25;99210.34;;;6.68;nan
63694;BME280;49839;51.798;10.954;2023-04-28T00:38:56;99203.34;;;6.68;nan
63694;BME280;49839;51.798;10.954;2023-04-28T00:41:24;99198.06;;;6.70;nan
63694;BME280;49839;51.798;10.954;2023-04-28T00:43:51;99201.47;;;6.72;nan
63694;BME280;49839;51.798;10.954;2023-04-28T00:46:21;99197.03;;;6.74;nan
63694;BME280;49839;51.798;10.954;2023-04-28T00:48:50;99191.72;;;6.75;nan
63694;BME280;49839;51.798;10.954;2023-04-28T00:51:18;99189.84;;;6.79;nan
63694;BME280;49839;51.798;10.954;2023-04-28T00:53:47;99190.63;;;6.81;nan
63694;BME280;49839;51.798;10.954;2023-04-28T00:56:14;99182.78;;;6.81;nan
63694;BME280;49839;51.798;10.954;2023-04-28T00:58:42;99177.44;;;6.84;nan
63694;BME280;49839;51.798;10.954;2023-04-28T01:01:10;99175.59;;;6.86;nan
63694;BME280;49839;51.798;10.954;2023-04-28T01:03:39;99172.91;;;6.88;nan
63694;BME280;49839;51.798;10.954;2023-04-28T01:06:09;99175.50;;;6.89;nan
63694;BME280;49839;51.798;10.954;2023-04-28T01:08:37;99178.91;;;6.91;nan
63694;BME280;49839;51.798;10.954;2023-04-28T01:11:05;99184.84;;;6.95;nan
63694;BME280;49839;51.798;10.954;2023-04-28T01:13:33;99183.09;;;6.95;nan
63694;BME280;49839;51.798;10.954;2023-04-28T01:16:01;99175.22;;;6.95;nan
63694;BME280;49839;51.798;10.954;2023-04-28T01:18:30;99180.38;;;6.98;nan
63694;BME280;49839;51.798;10.954;2023-04-28T01:20:58;99169.88;;;6.98;nan
63694;BME280;49839;51.798;10.954;2023-04-28T01:23:27;99164.56;;;7.00;nan
63694;BME280;49839;51.798;10.954;2023-04-28T01:25:56;99165.31;;;7.03;nan
63694;BME280;49839;51.798;10.954;2023-04-28T01:28:23;99157.31;;;7.06;nan
63694;BME280;49839;51.798;10.954;2023-04-28T01:30:51;99156.41;;;7.07;nan
63694;BME280;49839;51.798;10.954;2023-04-28T01:33:19;99153.69;;;7.11;nan
63694;BME280;49839;51.798;10.954;2023-04-28T01:35:47;99152.84;;;7.10;nan
63694;BME280;49839;51.798;10.954;2023-04-28T01:38:14;99143.19;;;7.11;nan
63694;BME280;49839;51.798;10.954;2023-04-28T01:40:42;99150.00;;;7.15;nan
63694;BME280;49839;51.798;10.954;2023-04-28T01:43:11;99138.63;;;7.16;nan
63694;BME280;49839;51.798;10.954;2023-04-28T01:45:38;99138.56;;;7.17;nan
63694;BME280;49839;51.798;10.954;2023-04-28T01:48:06;99143.72;;;7.19;nan
63694;BME280;49839;51.798;10.954;2023-04-28T01:50:34;99129.00;;;7.16;nan
63694;BME280;49839;51.798;10.954;2023-04-28T01:53:02;99123.88;;;7.13;nan
63694;BME280;49839;51.798;10.954;2023-04-28T01:55:29;99131.06;;;7.08;nan
63694;BME280;49839;51.798;10.954;2023-04-28T01:57:57;99115.53;;;7.03;nan
63694;BME280;49839;51.798;10.954;2023-04-28T02:00:26;99120.88;;;7.00;nan
63694;BME280;49839;51.798;10.954;2023-04-28T02:02:53;99125.34;;;6.98;nan
63694;BME280;49839;51.798;10.954;2023-04-28T02:05:21;99125.28;;;7.00;nan
63694;BME280;49839;51.798;10.954;2023-04-28T02:07:49;99121.69;;;7.02;nan
63694;BME280;49839;51.798;10.954;2023-04-28T02:10:16;99114.69;;;7.03;nan
63694;BME280;49839;51.798;10.954;2023-04-28T02:12:44;99117.09;;;7.07;nan
63694;BME280;49839;51.798;10.954;2023-04-28T02:15:12;99121.47;;;7.09;nan
63694;BME280;49839;51.798;10.954;2023-04-28T02:17:41;99111.88;;;7.07;nan
63694;BME280;49839;51.798;10.954;2023-04-28T02:20:09;99109.31;;;7.06;nan
63694;BME280;49839;51.798;10.954;2023-04-28T02:22:37;99106.84;;;7.03;nan
63694;BME280;49839;51.798;10.954;2023-04-28T02:25:05;99106.84;;;7.03;nan
63694;BME280;49839;51.798;10.954;2023-04-28T02:27:34;99106.69;;;7.06;nan
63694;BME280;49839;51.798;10.954;2023-04-28T02:30:03;99098.91;;;7.04;nan
63694;BME280;49839;51.798;10.954;2023-04-28T02:32:32;99100.59;;;7.05;nan
63694;BME280;49839;51.798;10.954;2023-04-28T02:35:01;99099.81;;;7.03;nan
63694;BME280;49839;51.798;10.954;2023-04-28T02:37:28;99102.22;;;7.08;nan
63694;BME280;49839;51.798;10.954;2023-04-28T02:39:56;99101.13;;;7.14;nan
63694;BME280;49839;51.798;10.954;2023-04-28T02:42:24;99096.03;;;7.11;nan
63694;BME280;49839;51.798;10.954;2023-04-28T02:44:51;99083.72;;;7.13;nan
63694;BME280;49839;51.798;10.954;2023-04-28T02:47:19;99080.16;;;7.14;nan
63694;BME280;49839;51.798;10.954;2023-04-28T02:49:47;99077.53;;;7.14;nan
63694;BME280;49839;51.798;10.954;2023-04-28T02:52:16;99077.63;;;7.12;nan
63694;BME280;49839;51.798;10.954;2023-04-28T02:54:44;99076.09;;;7.06;nan
63694;BME280;49839;51.798;10.954;2023-04-28T02:57:14;99063.22;;;7.02;nan
63694;BME280;49839;51.798;10.954;2023-04-28T02:59:41;99065.09;;;6.98;nan
63694;BME280;49839;51.798;10.954;2023-04-28T03:02:09;99067.78;;;6.97;nan
63694;BME280;49839;51.798;10.954;2023-04-28T03:04:37;99054.72;;;6.95;nan
63694;BME280;49839;51.798;10.954;2023-04-28T03:07:05;99048.63;;;6.95;nan
63694;BME280;49839;51.798;10.954;2023-04-28T03:09:34;99047.94;;;6.91;nan
63694;BME280;49839;51.798;10.954;2023-04-28T03:12:02;99042.78;;;6.88;nan
63694;BME280;49839;51.798;10.954;2023-04-28T03:14:30;99039.41;;;6.86;nan
63694;BME280;49839;51.798;10.954;2023-04-28T03:16:57;99027.22;;;6.85;nan
63694;BME280;49839;51.798;10.954;2023-04-28T03:19:25;99032.47;;;6.85;nan
63694;BME280;49839;51.798;10.954;2023-04-28T03:21:53;99034.28;;;6.83;nan
63694;BME280;49839;51.798;10.954;2023-04-28T03:24:20;99017.69;;;6.83;nan
63694;BME280;49839;51.798;10.954;2023-04-28T03:26:49;99022.91;;;6.84;nan
63694;BME280;49839;51.798;10.954;2023-04-28T03:29:17;99019.47;;;6.82;nan
63694;BME280;49839;51.798;10.954;2023-04-28T03:31:44;99014.31;;;6.81;nan
63694;BME280;49839;51.798;10.954;2023-04-28T03:34:12;99010.75;;;6.82;nan
63694;BME280;49839;51.798;10.954;2023-04-28T03:36:40;99006.38;;;6.82;nan
63694;BME280;49839;51.798;10.954;2023-04-28T03:39:08;99003.75;;;6.82;nan
63694;BME280;49839;51.798;10.954;2023-04-28T03:41:36;99006.34;;;6.84;nan
63694;BME280;49839;51.798;10.954;2023-04-28T03:44:05;99001.03;;;6.85;nan
63694;BME280;49839;51.798;10.954;2023-04-28T03:46:33;98997.47;;;6.86;nan
63694;BME280;49839;51.798;10.954;2023-04-28T03:49:00;99001.09;;;6.84;nan
63694;BME280;49839;51.798;10.954;2023-04-28T03:51:28;98992.31;;;6.85;nan
63694;BME280;49839;51.798;10.954;2023-04-28T03:53:58;98999.38;;;6.83;nan
63694;BME280;49839;51.798;10.954;2023-04-28T03:56:26;99001.13;;;6.82;nan
63694;BME280;49839;51.798;10.954;2023-04-28T03:58:53;98997.63;;;6.83;nan
63694;BME280;49839;51.798;10.954;2023-04-28T04:01:22;98999.50;;;6.79;nan
63694;BME280;49839;51.798;10.954;2023-04-28T04:03:51;98994.41;;;6.76;nan
63694;BME280;49839;51.798;10.954;2023-04-28T04:06:20;98991.06;;;6.73;nan
63694;BME280;49839;51.798;10.954;2023-04-28T04:08:47;98984.28;;;6.67;nan
63694;BME280;49839;51.798;10.954;2023-04-28T04:11:15;98987.16;;;6.61;nan
63694;BME280;49839;51.798;10.954;2023-04-28T04:13:43;98990.88;;;6.56;nan
63694;BME280;49839;51.798;10.954;2023-04-28T04:16:11;98984.78;;;6.55;nan
63694;BME280;49839;51.798;10.954;2023-04-28T04:18:42;98983.94;;;6.55;nan
63694;BME280;49839;51.798;10.954;2023-04-28T04:21:10;98984.78;;;6.55;nan
63694;BME280;49839;51.798;10.954;2023-04-28T04:23:37;98981.31;;;6.55;nan
63694;BME280;49839;51.798;10.954;2023-04-28T04:26:05;98986.44;;;6.58;nan
63694;BME280;49839;51.798;10.954;2023-04-28T04:28:33;98986.38;;;6.59;nan
63694;BME280;49839;51.798;10.954;2023-04-28T04:31:01;98991.31;;;6.67;nan
63694;BME280;49839;51.798;10.954;2023-04-28T04:33:28;98989.34;;;6.72;nan
63694;BME280;49839;51.798;10.954;2023-04-28T04:35:57;98981.56;;;6.70;nan
63694;BME280;49839;51.798;10.954;2023-04-28T04:38:25;98988.50;;;6.71;nan
63694;BME280;49839;51.798;10.954;2023-04-28T04:40:53;98988.50;;;6.71;nan
63694;BME280;49839;51.798;10.954;2023-04-28T04:43:20;98983.88;;;6.78;nan
63694;BME280;49839;51.798;10.954;2023-04-28T04:45:48;98983.72;;;6.81;nan
63694;BME280;49839;51.798;10.954;2023-04-28T04:48:16;98978.38;;;6.84;nan
63694;BME280;49839;51.798;10.954;2023-04-28T04:50:44;98970.78;;;6.98;nan
63694;BME280;49839;51.798;10.954;2023-04-28T04:53:13;98977.19;;;7.12;nan
63694;BME280;49839;51.798;10.954;2023-04-28T04:55:41;98973.19;;;7.23;nan
63694;BME280;49839;51.798;10.954;2023-04-28T04:58:09;98973.44;;;7.38;nan
63694;BME280;49839;51.798;10.954;2023-04-28T05:00:37;98969.69;;;7.43;nan
63694;BME280;49839;51.798;10.954;2023-04-28T05:03:04;98962.63;;;7.45;nan
63694;BME280;49839;51.798;10.954;2023-04-28T05:05:33;98967.09;;;7.43;nan
63694;BME280;49839;51.798;10.954;2023-04-28T05:08:01;98961.66;;;7.48;nan
63694;BME280;49839;51.798;10.954;2023-04-28T05:10:30;98948.47;;;7.49;nan
63694;BME280;49839;51.798;10.954;2023-04-28T05:12:58;98953.06;;;7.44;nan
63694;BME280;49839;51.798;10.954;2023-04-28T05:15:26;98954.81;;;7.44;nan
63694;BME280;49839;51.798;10.954;2023-04-28T05:17:54;98952.41;;;7.39;nan
63694;BME280;49839;51.798;10.954;2023-04-28T05:20:22;98947.16;;;7.39;nan
63694;BME280;49839;51.798;10.954;2023-04-28T05:22:50;98947.09;;;7.41;nan
63694;BME280;49839;51.798;10.954;2023-04-28T05:25:18;98940.78;;;7.45;nan
63694;BME280;49839;51.798;10.954;2023-04-28T05:27:47;98942.56;;;7.44;nan
63694;BME280;49839;51.798;10.954;2023-04-28T05:30:14;98939.75;;;7.49;nan
63694;BME280;49839;51.798;10.954;2023-04-28T05:32:42;98943.34;;;7.46;nan
63694;BME280;49839;51.798;10.954;2023-04-28T05:35:10;98938.25;;;7.43;nan
63694;BME280;49839;51.798;10.954;2023-04-28T05:37:37;98934.78;;;7.43;nan
63694;BME280;49839;51.798;10.954;2023-04-28T05:40:09;98932.22;;;7.41;nan
63694;BME280;49839;51.798;10.954;2023-04-28T05:42:37;98937.31;;;7.44;nan
63694;BME280;49839;51.798;10.954;2023-04-28T05:45:08;98927.69;;;7.45;nan
63694;BME280;49839;51.798;10.954;2023-04-28T05:47:36;98929.53;;;7.43;nan
63694;BME280;49839;51.798;10.954;2023-04-28T05:50:04;98928.44;;;7.47;nan
63694;BME280;49839;51.798;10.954;2023-04-28T05:52:32;98926.56;;;7.50;nan
63694;BME280;49839;51.798;10.954;2023-04-28T05:55:00;98934.34;;;7.52;nan
63694;BME280;49839;51.798;10.954;2023-04-28T05:57:28;98934.28;;;7.53;nan
63694;BME280;49839;51.798;10.954;2023-04-28T06:00:01;98932.16;;;7.62;nan
63694;BME280;49839;51.798;10.954;2023-04-28T06:02:30;98934.56;;;7.66;nan
63694;BME280;49839;51.798;10.954;2023-04-28T06:04:58;98920.28;;;7.73;nan
63694;BME280;49839;51.798;10.954;2023-04-28T06:07:26;98922.03;;;7.73;nan
63694;BME280;49839;51.798;10.954;2023-04-28T06:09:54;98918.34;;;7.77;nan
63694;BME280;49839;51.798;10.954;2023-04-28T06:12:21;98924.31;;;7.80;nan
63694;BME280;49839;51.798;10.954;2023-04-28T06:14:49;98923.31;;;7.83;nan
63694;BME280;49839;51.798;10.954;2023-04-28T06:17:18;98923.75;;;7.74;nan
63694;BME280;49839;51.798;10.954;2023-04-28T06:19:47;98919.56;;;7.70;nan
63694;BME280;49839;51.798;10.954;2023-04-28T06:22:16;98922.91;;;7.73;nan
63694;BME280;49839;51.798;10.954;2023-04-28T06:24:44;98923.50;;;7.59;nan
63694;BME280;49839;51.798;10.954;2023-04-28T06:27:13;98916.56;;;7.58;nan
63694;BME280;49839;51.798;10.954;2023-04-28T06:29:40;98909.81;;;7.53;nan
63694;BME280;49839;51.798;10.954;2023-04-28T06:32:08;98908.94;;;7.54;nan
63694;BME280;49839;51.798;10.954;2023-04-28T06:34:36;98919.41;;;7.54;nan
63694;BME280;49839;51.798;10.954;2023-04-28T06:37:05;98916.72;;;7.55;nan
63694;BME280;49839;51.798;10.954;2023-04-28T06:39:33;98902.88;;;7.52;nan
63694;BME280;49839;51.798;10.954;2023-04-28T06:42:01;98908.03;;;7.53;nan
63694;BME280;49839;51.798;10.954;2023-04-28T06:44:29;98914.78;;;7.59;nan
63694;BME280;49839;51.798;10.954;2023-04-28T06:46:57;98897.94;;;7.65;nan
63694;BME280;49839;51.798;10.954;2023-04-28T06:49:24;98899.34;;;7.72;nan
63694;BME280;49839;51.798;10.954;2023-04-28T06:51:52;98890.81;;;7.85;nan
63694;BME280;49839;51.798;10.954;2023-04-28T06:54:21;98885.22;;;7.93;nan
63694;BME280;49839;51.798;10.954;2023-04-28T06:56:49;98883.00;;;8.03;nan
63694;BME280;49839;51.798;10.954;2023-04-28T06:59:17;98883.47;;;8.11;nan
63694;BME280;49839;51.798;10.954;2023-04-28T07:01:44;98876.47;;;8.11;nan
63694;BME280;49839;51.798;10.954;2023-04-28T07:04:12;98878.09;;;8.14;nan
63694;BME280;49839;51.798;10.954;2023-04-28T07:06:40;98873.41;;;8.21;nan
63694;BME280;49839;51.798;10.954;2023-04-28T07:09:08;98864.06;;;8.32;nan
63694;BME280;49839;51.798;10.954;2023-04-28T07:11:37;98868.75;;;8.45;nan
63694;BME280;49839;51.798;10.954;2023-04-28T07:14:05;98875.47;;;8.50;nan
63694;BME280;49839;51.798;10.954;2023-04-28T07:16:33;98874.16;;;8.59;nan
63694;BME280;49839;51.798;10.954;2023-04-28T07:19:02;98868.66;;;8.63;nan
63694;BME280;49839;51.798;10.954;2023-04-28T07:21:30;98875.38;;;8.69;nan
63694;BME280;49839;51.798;10.954;2023-04-28T07:23:57;98864.81;;;8.71;nan
63694;BME280;49839;51.798;10.954;2023-04-28T07:26:25;98867.97;;;8.77;nan
63694;BME280;49839;51.798;10.954;2023-04-28T07:28:54;98862.63;;;8.79;nan
63694;BME280;49839;51.798;10.954;2023-04-28T07:31:22;98861.38;;;8.86;nan
63694;BME280;49839;51.798;10.954;2023-04-28T07:33:51;98862.53;;;8.98;nan
63694;BME280;49839;51.798;10.954;2023-04-28T07:36:19;98861.34;;;9.03;nan
63694;BME280;49839;51.798;10.954;2023-04-28T07:38:48;98865.59;;;9.06;nan
63694;BME280;49839;51.798;10.954;2023-04-28T07:41:16;98870.38;;;9.15;nan
63694;BME280;49839;51.798;10.954;2023-04-28T07:43:44;98855.03;;;9.23;nan
63694;BME280;49839;51.798;10.954;2023-04-28T07:46:13;98858.72;;;9.36;nan
63694;BME280;49839;51.798;10.954;2023-04-28T07:48:41;98850.06;;;9.50;nan
63694;BME280;49839;51.798;10.954;2023-04-28T07:51:11;98844.28;;;9.59;nan
63694;BME280;49839;51.798;10.954;2023-04-28T07:53:39;98844.78;;;9.66;nan
63694;BME280;49839;51.798;10.954;2023-04-28T07:56:07;98849.47;;;9.76;nan
63694;BME280;49839;51.798;10.954;2023-04-28T07:58:35;98851.84;;;9.97;nan
63694;BME280;49839;51.798;10.954;2023-04-28T08:01:03;98847.56;;;10.10;nan
63694;BME280;49839;51.798;10.954;2023-04-28T08:03:32;98847.06;;;10.19;nan
63694;BME280;49839;51.798;10.954;2023-04-28T08:06:00;98844.75;;;10.29;nan
63694;BME280;49839;51.798;10.954;2023-04-28T08:08:29;98846.78;;;10.40;nan
63694;BME280;49839;51.798;10.954;2023-04-28T08:10:57;98843.09;;;10.42;nan
63694;BME280;49839;51.798;10.954;2023-04-28T08:13:25;98844.72;;;10.45;nan
63694;BME280;49839;51.798;10.954;2023-04-28T08:15:54;98840.97;;;10.49;nan
63694;BME280;49839;51.798;10.954;2023-04-28T08:18:24;98835.97;;;10.44;nan
63694;BME280;49839;51.798;10.954;2023-04-28T08:20:53;98838.25;;;10.50;nan
63694;BME280;49839;51.798;10.954;2023-04-28T08:23:21;98841.16;;;10.46;nan
63694;BME280;49839;51.798;10.954;2023-04-28T08:25:49;98844.16;;;10.40;nan
63694;BME280;49839;51.798;10.954;2023-04-28T08:28:16;98846.88;;;10.38;nan
63694;BME280;49839;51.798;10.954;2023-04-28T08:30:44;98843.56;;;10.35;nan
63694;BME280;49839;51.798;10.954;2023-04-28T08:33:12;98842.44;;;10.39;nan
63694;BME280;49839;51.798;10.954;2023-04-28T08:35:40;98840.06;;;10.34;nan
63694;BME280;49839;51.798;10.954;2023-04-28T08:38:09;98839.97;;;10.36;nan
63694;BME280;49839;51.798;10.954;2023-04-28T08:40:39;98841.41;;;10.41;nan
63694;BME280;49839;51.798;10.954;2023-04-28T08:43:08;98838.28;;;10.35;nan
63694;BME280;49839;51.798;10.954;2023-04-28T08:45:40;98850.34;;;10.39;nan
63694;BME280;49839;51.798;10.954;2023-04-28T08:48:15;98842.25;;;10.42;nan
63694;BME280;49839;51.798;10.954;2023-04-28T08:50:48;98840.66;;;10.39;nan
63694;BME280;49839;51.798;10.954;2023-04-28T08:53:22;98842.19;;;10.43;nan
63694;BME280;49839;51.798;10.954;2023-04-28T08:55:53;98836.47;;;10.51;nan
63694;BME280;49839;51.798;10.954;2023-04-28T08:58:22;98832.53;;;10.58;nan
63694;BME280;49839;51.798;10.954;2023-04-28T09:00:51;98829.16;;;10.70;nan
63694;BME280;49839;51.798;10.954;2023-04-28T09:03:19;98817.06;;;10.82;nan
63694;BME280;49839;51.798;10.954;2023-04-28T09:05:47;98812.06;;;10.92;nan
63694;BME280;49839;51.798;10.954;2023-04-28T09:08:15;98805.66;;;11.10;nan
63694;BME280;49839;51.798;10.954;2023-04-28T09:10:45;98807.13;;;11.14;nan
63694;BME280;49839;51.798;10.954;2023-04-28T09:13:24;98803.00;;;11.24;nan
63694;BME280;49839;51.798;10.954;2023-04-28T09:15:58;98801.47;;;11.20;nan
63694;BME280;49839;51.798;10.954;2023-04-28T09:18:26;98799.97;;;11.30;nan
63694;BME280;49839;51.798;10.954;2023-04-28T09:21:02;98796.19;;;11.49;nan
63694;BME280;49839;51.798;10.954;2023-04-28T09:23:30;98796.03;;;11.64;nan
63694;BME280;49839;51.798;10.954;2023-04-28T09:26:01;98792.16;;;11.70;nan
63694;BME280;49839;51.798;10.954;2023-04-28T09:28:30;98791.50;;;11.81;nan
63694;BME280;49839;51.798;10.954;2023-04-28T09:30:57;98792.44;;;11.80;nan
63694;BME280;49839;51.798;10.954;2023-04-28T09:33:26;98797.25;;;11.87;nan
63694;BME280;49839;51.798;10.954;2023-04-28T09:35:54;98797.56;;;11.96;nan
63694;BME280;49839;51.798;10.954;2023-04-28T09:38:22;98797.69;;;11.94;nan
63694;BME280;49839;51.798;10.954;2023-04-28T09:40:57;98794.31;;;11.92;nan
63694;BME280;49839;51.798;10.954;2023-04-28T09:43:28;98795.06;;;11.80;nan
63694;BME280;49839;51.798;10.954;2023-04-28T09:45:57;98779.41;;;11.77;nan
63694;BME280;49839;51.798;10.954;2023-04-28T09:48:27;98785.00;;;11.72;nan
63694;BME280;49839;51.798;10.954;2023-04-28T09:50:55;98781.94;;;11.78;nan
63694;BME280;49839;51.798;10.954;2023-04-28T09:53:25;98780.06;;;11.80;nan
63694;BME280;49839;51.798;10.954;2023-04-28T09:55:54;98777.94;;;11.73;nan
63694;BME280;49839;51.798;10.954;2023-04-28T09:58:27;98776.22;;;11.72;nan
63694;BME280;49839;51.798;10.954;2023-04-28T10:00:59;98781.44;;;11.73;nan
63694;BME280;49839;51.798;10.954;2023-04-28T10:03:29;98778.38;;;11.79;nan
63694;BME280;49839;51.798;10.954;2023-04-28T10:06:00;98776.41;;;11.83;nan
63694;BME280;49839;51.798;10.954;2023-04-28T10:08:31;98771.78;;;11.86;nan
63694;BME280;49839;51.798;10.954;2023-04-28T10:11:00;98776.13;;;11.87;nan
63694;BME280;49839;51.798;10.954;2023-04-28T10:13:31;98771.56;;;11.89;nan
63694;BME280;49839;51.798;10.954;2023-04-28T10:15:59;98769.25;;;11.98;nan
63694;BME280;49839;51.798;10.954;2023-04-28T10:18:30;98773.69;;;11.97;nan
63694;BME280;49839;51.798;10.954;2023-04-28T10:21:02;98766.03;;;12.07;nan
63694;BME280;49839;51.798;10.954;2023-04-28T10:23:50;98767.53;;;12.11;nan
63694;BME280;49839;51.798;10.954;2023-04-28T10:26:35;98761.09;;;12.15;nan
63694;BME280;49839;51.798;10.954;2023-04-28T10:29:15;98766.25;;;12.16;nan
63694;BME280;49839;51.798;10.954;2023-04-28T10:32:17;98754.00;;;12.15;nan
63694;BME280;49839;51.798;10.954;2023-04-28T10:34:45;98759.09;;;12.18;nan
63694;BME280;49839;51.798;10.954;2023-04-28T10:37:13;98755.38;;;12.21;nan
63694;BME280;49839;51.798;10.954;2023-04-28T10:42:53;98746.94;;;12.29;nan
63694;BME280;49839;51.798;10.954;2023-04-28T10:51:34;98743.28;;;12.57;nan
63694;BME280;49839;51.798;10.954;2023-04-28T10:54:08;98737.66;;;12.61;nan
63694;BME280;49839;51.798;10.954;2023-04-28T10:56:36;98736.50;;;12.65;nan
63694;BME280;49839;51.798;10.954;2023-04-28T11:01:50;98735.66;;;12.65;nan
63694;BME280;49839;51.798;10.954;2023-04-28T11:04:17;98725.50;;;12.71;nan
63694;BME280;49839;51.798;10.954;2023-04-28T11:07:08;98722.31;;;12.79;nan
63694;BME280;49839;51.798;10.954;2023-04-28T11:09:50;98736.28;;;12.81;nan
63694;BME280;49839;51.798;10.954;2023-04-28T11:12:18;98736.59;;;12.89;nan
63694;BME280;49839;51.798;10.954;2023-04-28T11:14:46;98731.75;;;12.83;nan
63694;BME280;49839;51.798;10.954;2023-04-28T11:17:14;98737.22;;;12.67;nan
63694;BME280;49839;51.798;10.954;2023-04-28T11:19:45;98738.72;;;12.59;nan
63694;BME280;49839;51.798;10.954;2023-04-28T11:22:15;98737.66;;;12.61;nan
63694;BME280;49839;51.798;10.954;2023-04-28T11:24:55;98735.44;;;12.68;nan
63694;BME280;49839;51.798;10.954;2023-04-28T11:27:23;98734.06;;;12.75;nan
63694;BME280;49839;51.798;10.954;2023-04-28T11:29:52;98741.25;;;12.73;nan
63694;BME280;49839;51.798;10.954;2023-04-28T11:32:25;98738.50;;;12.74;nan
63694;BME280;49839;51.798;10.954;2023-04-28T11:34:54;98731.75;;;12.83;nan
63694;BME280;49839;51.798;10.954;2023-04-28T11:37:22;98738.00;;;12.69;nan
63694;BME280;49839;51.798;10.954;2023-04-28T11:39:50;98731.88;;;12.56;nan
63694;BME280;49839;51.798;10.954;2023-04-28T11:42:19;98725.09;;;12.52;nan
63694;BME280;49839;51.798;10.954;2023-04-28T11:44:50;98725.94;;;12.53;nan
63694;BME280;49839;51.798;10.954;2023-04-28T11:47:28;98721.91;;;12.47;nan
63694;BME280;49839;51.798;10.954;2023-04-28T11:49:58;98724.97;;;12.41;nan
63694;BME280;49839;51.798;10.954;2023-04-28T11:52:26;98721.81;;;12.48;nan
63694;BME280;49839;51.798;10.954;2023-04-28T11:54:55;98726.88;;;12.52;nan
63694;BME280;49839;51.798;10.954;2023-04-28T11:57:25;98731.22;;;12.40;nan
63694;BME280;49839;51.798;10.954;2023-04-28T12:00:10;98718.53;;;12.32;nan
63694;BME280;49839;51.798;10.954;2023-04-28T12:02:39;98714.50;;;12.39;nan
63694;BME280;49839;51.798;10.954;2023-04-28T12:05:09;98701.31;;;12.65;nan
63694;BME280;49839;51.798;10.954;2023-04-28T12:07:40;98703.06;;;12.90;nan
63694;BME280;49839;51.798;10.954;2023-04-28T12:10:10;98704.47;;;13.19;nan
63694;BME280;49839;51.798;10.954;2023-04-28T12:12:39;98706.91;;;13.35;nan
63694;BME280;49839;51.798;10.954;2023-04-28T12:15:17;98701.56;;;13.48;nan
63694;BME280;49839;51.798;10.954;2023-04-28T12:17:46;98683.16;;;13.46;nan
63694;BME280;49839;51.798;10.954;2023-04-28T12:20:32;98692.72;;;13.60;nan
63694;BME280;49839;51.798;10.954;2023-04-28T12:23:01;98691.44;;;13.77;nan
63694;BME280;49839;51.798;10.954;2023-04-28T12:25:29;98688.03;;;13.99;nan
63694;BME280;49839;51.798;10.954;2023-04-28T12:28:02;98680.97;;;14.11;nan
63694;BME280;49839;51.798;10.954;2023-04-28T12:30:32;98672.06;;;14.12;nan
63694;BME280;49839;51.798;10.954;2023-04-28T12:33:00;98673.88;;;14.11;nan
63694;BME280;49839;51.798;10.954;2023-04-28T12:35:28;98675.69;;;14.22;nan
63694;BME280;49839;51.798;10.954;2023-04-28T12:37:56;98668.38;;;14.36;nan
63694;BME280;49839;51.798;10.954;2023-04-28T12:40:24;98661.75;;;14.31;nan
63694;BME280;49839;51.798;10.954;2023-04-28T12:42:52;98661.56;;;14.10;nan
63694;BME280;49839;51.798;10.954;2023-04-28T12:45:21;98668.41;;;14.01;nan
63694;BME280;49839;51.798;10.954;2023-04-28T12:47:49;98668.16;;;13.93;nan
63694;BME280;49839;51.798;10.954;2023-04-28T12:50:17;98660.56;;;13.89;nan
63694;BME280;49839;51.798;10.954;2023-04-28T12:52:45;98661.63;;;13.86;nan
63694;BME280;49839;51.798;10.954;2023-04-28T12:55:13;98660.56;;;13.89;nan
63694;BME280;49839;51.798;10.954;2023-04-28T12:57:41;98661.50;;;13.88;nan
63694;BME280;49839;51.798;10.954;2023-04-28T13:00:09;98655.50;;;13.86;nan
63694;BME280;49839;51.798;10.954;2023-04-28T13:02:40;98657.78;;;13.79;nan
63694;BME280;49839;51.798;10.954;2023-04-28T13:05:08;98656.41;;;13.73;nan
63694;BME280;49839;51.798;10.954;2023-04-28T13:07:36;98650.03;;;13.76;nan
63694;BME280;49839;51.798;10.954;2023-04-28T13:10:05;98648.50;;;13.85;nan
63694;BME280;49839;51.798;10.954;2023-04-28T13:12:33;98649.97;;;13.89;nan
63694;BME280;49839;51.798;10.954;2023-04-28T13:15:01;98650.41;;;13.82;nan
63694;BME280;49839;51.798;10.954;2023-04-28T13:17:29;98638.84;;;13.72;nan
63694;BME280;49839;51.798;10.954;2023-04-28T13:19:58;98650.00;;;13.65;nan
63694;BME280;49839;51.798;10.954;2023-04-28T13:22:26;98641.84;;;13.68;nan
63694;BME280;49839;51.798;10.954;2023-04-28T13:24:54;98648.09;;;13.67;nan
63694;BME280;49839;51.798;10.954;2023-04-28T13:27:23;98641.28;;;13.51;nan
63694;BME280;49839;51.798;10.954;2023-04-28T13:29:51;98644.28;;;13.47;nan
63694;BME280;49839;51.798;10.954;2023-04-28T13:32:19;98637.06;;;13.49;nan
63694;BME280;49839;51.798;10.954;2023-04-28T13:34:47;98638.34;;;13.43;nan
63694;BME280;49839;51.798;10.954;2023-04-28T13:37:16;98638.03;;;13.48;nan
63694;BME280;49839;51.798;10.954;2023-04-28T13:39:44;98637.19;;;13.47;nan